Time;durP1;ratioP1;P1;durP2;ratioP2;P2;SDS_P1;SDS_P2;PMS_P1;PMS_P2;Temp;Humidity;BMP_temperature;BMP_pressure;BME280_temperature;BME280_humidity;BME280_pressure;Samples;Min_cycle;Max_cycle;Signal;HPM_P1;HPM_P2
2023/05/18 00:00:09;;;;;;;3.17;1.70;;;;;;;;;;5068542;23;20244;-83
2023/05/18 00:02:36;;;;;;;3.90;1.83;;;;;;;;;;5048629;28;20175;-82
2023/05/18 00:05:03;;;;;;;4.30;2.00;;;;;;;;;;5057157;28;20174;-81
2023/05/18 00:07:35;;;;;;;4.23;1.80;;;;;;;;;;5055344;28;20205;-81
2023/05/18 00:10:01;;;;;;;4.27;1.80;;;;;;;;;;5053426;28;20292;-81
2023/05/18 00:12:27;;;;;;;3.03;1.73;;;;;;;;;;5054052;28;20217;-81
2023/05/18 00:14:53;;;;;;;3.00;1.90;;;;;;;;;;5054985;28;20213;-81
2023/05/18 00:17:20;;;;;;;2.80;1.87;;;;;;;;;;5055300;28;20203;-81
2023/05/18 00:19:46;;;;;;;4.80;1.90;;;;;;;;;;5054605;28;20213;-82
2023/05/18 00:22:17;;;;;;;3.53;2.33;;;;;;;;;;5054943;28;20260;-83
2023/05/18 00:24:47;;;;;;;4.77;1.90;;;;;;;;;;5055058;28;20201;-81
2023/05/18 00:27:13;;;;;;;6.07;2.10;;;;;;;;;;5053629;28;20213;-81
2023/05/18 00:29:40;;;;;;;3.63;2.07;;;;;;;;;;5054087;28;20205;-81
2023/05/18 00:32:06;;;;;;;3.00;1.80;;;;;;;;;;5053855;28;20177;-81
2023/05/18 00:34:32;;;;;;;3.83;1.90;;;;;;;;;;5053689;28;20190;-80
2023/05/18 00:36:58;;;;;;;4.93;2.23;;;;;;;;;;5053456;28;20767;-81
2023/05/18 00:39:24;;;;;;;4.90;2.13;;;;;;;;;;5054528;28;20300;-81
2023/05/18 00:41:50;;;;;;;4.63;1.97;;;;;;;;;;5052487;28;20231;-81
2023/05/18 00:44:16;;;;;;;5.97;2.43;;;;;;;;;;5054489;28;20166;-81
2023/05/18 00:46:43;;;;;;;5.47;2.30;;;;;;;;;;5053899;28;20551;-81
2023/05/18 00:49:09;;;;;;;2.03;1.70;;;;;;;;;;5053174;28;20203;-81
2023/05/18 00:51:35;;;;;;;5.43;1.90;;;;;;;;;;5054030;28;20615;-81
2023/05/18 00:54:02;;;;;;;5.83;2.30;;;;;;;;;;5054361;28;20197;-81
2023/05/18 00:56:32;;;;;;;5.00;1.83;;;;;;;;;;5053167;28;20180;-81
2023/05/18 00:59:00;;;;;;;3.60;1.80;;;;;;;;;;5052950;28;20260;-81
2023/05/18 01:01:27;;;;;;;2.80;1.90;;;;;;;;;;5052668;28;20257;-81
2023/05/18 01:03:55;;;;;;;3.67;2.03;;;;;;;;;;5053343;28;20224;-81
2023/05/18 01:06:24;;;;;;;4.90;1.97;;;;;;;;;;5053089;28;20181;-81
2023/05/18 01:08:50;;;;;;;4.63;2.30;;;;;;;;;;5052674;28;20202;-81
2023/05/18 01:11:19;;;;;;;4.03;1.90;;;;;;;;;;5052448;28;20209;-82
2023/05/18 01:14:04;;;;;;;3.20;1.80;;;;;;;;;;5053137;28;20185;-81
2023/05/18 01:16:33;;;;;;;2.00;1.77;;;;;;;;;;5054151;28;20196;-82
2023/05/18 01:19:15;;;;;;;3.17;1.90;;;;;;;;;;5054377;28;20209;-81
2023/05/18 01:21:57;;;;;;;3.10;1.90;;;;;;;;;;5053482;28;20169;-81
2023/05/18 01:24:24;;;;;;;4.90;2.03;;;;;;;;;;5054310;28;20177;-83
2023/05/18 01:26:56;;;;;;;5.63;2.30;;;;;;;;;;5053131;28;20211;-81
2023/05/18 01:29:22;;;;;;;4.10;2.43;;;;;;;;;;5054005;28;20210;-81
2023/05/18 01:31:48;;;;;;;4.70;2.67;;;;;;;;;;5053611;28;20181;-81
2023/05/18 01:34:14;;;;;;;7.63;2.47;;;;;;;;;;5051803;28;20258;-81
2023/05/18 01:36:40;;;;;;;4.70;2.50;;;;;;;;;;5053815;28;20176;-81
2023/05/18 01:39:07;;;;;;;5.20;2.20;;;;;;;;;;5052354;28;20204;-81
2023/05/18 01:41:38;;;;;;;4.93;2.23;;;;;;;;;;5052017;28;20178;-82
2023/05/18 01:44:14;;;;;;;3.53;2.00;;;;;;;;;;5052504;28;20179;-81
2023/05/18 01:46:40;;;;;;;2.83;2.10;;;;;;;;;;5052382;28;20179;-81
2023/05/18 01:49:09;;;;;;;6.40;2.60;;;;;;;;;;5052510;28;20201;-81
2023/05/18 01:51:36;;;;;;;4.40;2.70;;;;;;;;;;5053393;28;20630;-81
2023/05/18 01:54:05;;;;;;;3.07;2.53;;;;;;;;;;5048919;28;20191;-81
2023/05/18 01:56:31;;;;;;;5.07;2.77;;;;;;;;;;5052485;28;20660;-80
2023/05/18 01:58:58;;;;;;;5.77;3.00;;;;;;;;;;5052185;28;20213;-81
2023/05/18 02:01:24;;;;;;;4.03;2.90;;;;;;;;;;5052909;28;20213;-81
2023/05/18 02:03:50;;;;;;;6.73;3.50;;;;;;;;;;5052740;28;20182;-81
2023/05/18 02:06:16;;;;;;;6.60;3.10;;;;;;;;;;5052785;28;20174;-83
2023/05/18 02:08:43;;;;;;;3.37;2.47;;;;;;;;;;5052497;28;20222;-83
2023/05/18 02:11:09;;;;;;;4.53;2.90;;;;;;;;;;5051553;28;20564;-82
2023/05/18 02:13:35;;;;;;;4.73;3.07;;;;;;;;;;5054051;28;20516;-82
2023/05/18 02:16:03;;;;;;;4.43;2.70;;;;;;;;;;5052525;28;20188;-81
2023/05/18 02:18:32;;;;;;;4.07;2.97;;;;;;;;;;5052910;28;20179;-81
2023/05/18 02:20:58;;;;;;;4.23;2.97;;;;;;;;;;5053423;28;20202;-81
2023/05/18 02:23:25;;;;;;;5.83;3.00;;;;;;;;;;5053125;28;20179;-81
2023/05/18 02:25:54;;;;;;;4.30;3.20;;;;;;;;;;5054693;28;20264;-81
2023/05/18 02:28:20;;;;;;;4.40;3.20;;;;;;;;;;5052792;28;20254;-81
2023/05/18 02:30:46;;;;;;;6.60;3.10;;;;;;;;;;5054251;28;20181;-82
2023/05/18 02:33:12;;;;;;;4.47;2.97;;;;;;;;;;5053440;28;20187;-82
2023/05/18 02:35:39;;;;;;;6.07;2.90;;;;;;;;;;5054450;28;20183;-82
2023/05/18 02:38:05;;;;;;;4.10;3.00;;;;;;;;;;5052676;28;20534;-81
2023/05/18 02:40:32;;;;;;;4.50;2.70;;;;;;;;;;5053954;28;20200;-81
2023/05/18 02:42:58;;;;;;;4.83;2.60;;;;;;;;;;5054702;28;20182;-82
2023/05/18 02:45:24;;;;;;;7.80;3.10;;;;;;;;;;5053569;28;20178;-82
2023/05/18 02:47:50;;;;;;;5.13;2.60;;;;;;;;;;5053990;28;20325;-81
2023/05/18 02:50:16;;;;;;;6.37;2.90;;;;;;;;;;5054299;28;20254;-81
2023/05/18 02:52:44;;;;;;;3.87;2.60;;;;;;;;;;5054974;28;20650;-81
2023/05/18 02:55:12;;;;;;;3.50;2.73;;;;;;;;;;5055094;28;20186;-81
2023/05/18 02:57:38;;;;;;;3.90;2.70;;;;;;;;;;5055709;28;20174;-82
2023/05/18 03:00:10;;;;;;;4.20;2.60;;;;;;;;;;5053244;28;20272;-84
2023/05/18 03:02:37;;;;;;;4.03;2.30;;;;;;;;;;5055523;28;20187;-82
2023/05/18 03:05:04;;;;;;;5.93;2.70;;;;;;;;;;5055349;28;20636;-82
2023/05/18 03:07:31;;;;;;;4.47;2.60;;;;;;;;;;5056055;28;20178;-82
2023/05/18 03:09:57;;;;;;;3.30;2.43;;;;;;;;;;5066724;28;20190;-82
2023/05/18 03:12:24;;;;;;;4.07;2.70;;;;;;;;;;5061225;28;20249;-82
2023/05/18 03:14:49;;;;;;;3.97;2.50;;;;;;;;;;5058324;28;20171;-82
2023/05/18 03:17:16;;;;;;;4.67;2.30;;;;;;;;;;5059529;28;20308;-82
2023/05/18 03:19:42;;;;;;;5.77;2.53;;;;;;;;;;5057630;28;20202;-82
2023/05/18 03:22:08;;;;;;;4.00;2.60;;;;;;;;;;5058602;28;20176;-82
2023/05/18 03:24:39;;;;;;;5.03;2.63;;;;;;;;;;5059245;28;20261;-81
2023/05/18 03:27:05;;;;;;;6.20;2.83;;;;;;;;;;5058569;28;20182;-82
2023/05/18 03:29:31;;;;;;;5.33;2.87;;;;;;;;;;5059650;28;20205;-81
2023/05/18 03:31:57;;;;;;;4.30;2.70;;;;;;;;;;5059221;28;20173;-81
2023/05/18 03:34:24;;;;;;;5.60;2.53;;;;;;;;;;5056517;28;20203;-81
2023/05/18 03:36:51;;;;;;;4.20;2.70;;;;;;;;;;5055210;28;20256;-82
2023/05/18 03:39:17;;;;;;;5.57;2.70;;;;;;;;;;5054802;28;20339;-81
2023/05/18 03:41:43;;;;;;;4.93;2.40;;;;;;;;;;5054832;28;20178;-81
2023/05/18 03:44:09;;;;;;;3.67;2.53;;;;;;;;;;5055482;28;20175;-81
2023/05/18 03:46:35;;;;;;;5.70;2.70;;;;;;;;;;5055100;28;20185;-81
2023/05/18 03:49:03;;;;;;;5.83;2.30;;;;;;;;;;5055170;28;20613;-82
2023/05/18 03:51:30;;;;;;;4.63;2.77;;;;;;;;;;5055491;28;20188;-81
2023/05/18 03:53:56;;;;;;;6.43;2.77;;;;;;;;;;5055945;28;20189;-81
2023/05/18 03:56:22;;;;;;;4.63;2.33;;;;;;;;;;5056113;28;20211;-81
2023/05/18 03:58:50;;;;;;;5.60;2.70;;;;;;;;;;5054665;28;20246;-81
2023/05/18 04:01:17;;;;;;;4.17;2.43;;;;;;;;;;5055184;28;20197;-81
2023/05/18 04:03:44;;;;;;;3.70;2.50;;;;;;;;;;5054641;28;20234;-82
2023/05/18 04:06:10;;;;;;;4.80;2.60;;;;;;;;;;5054466;28;20266;-81
2023/05/18 04:08:36;;;;;;;4.27;2.60;;;;;;;;;;5054348;28;20571;-81
2023/05/18 04:11:03;;;;;;;5.00;2.60;;;;;;;;;;5055301;28;20180;-81
2023/05/18 04:13:29;;;;;;;3.00;2.37;;;;;;;;;;5054265;28;20192;-81
2023/05/18 04:15:57;;;;;;;3.47;2.53;;;;;;;;;;5055668;28;20173;-81
2023/05/18 04:18:23;;;;;;;4.43;3.03;;;;;;;;;;5055777;28;20208;-81
2023/05/18 04:20:49;;;;;;;4.17;2.50;;;;;;;;;;5052643;28;20281;-81
2023/05/18 04:23:15;;;;;;;4.57;2.40;;;;;;;;;;5055110;28;20180;-81
2023/05/18 04:25:42;;;;;;;2.87;2.50;;;;;;;;;;5054032;28;20173;-81
2023/05/18 04:28:08;;;;;;;5.20;2.40;;;;;;;;;;5055318;28;20180;-83
2023/05/18 04:30:36;;;;;;;5.13;2.63;;;;;;;;;;5053496;28;20231;-83
2023/05/18 04:33:02;;;;;;;5.87;2.60;;;;;;;;;;5053885;28;20182;-81
2023/05/18 04:35:30;;;;;;;3.10;2.70;;;;;;;;;;5054996;28;20186;-83
2023/05/18 04:37:56;;;;;;;5.40;2.30;;;;;;;;;;5054262;28;20189;-81
2023/05/18 04:40:24;;;;;;;4.17;2.60;;;;;;;;;;5053156;28;20214;-81
2023/05/18 04:42:50;;;;;;;5.63;2.47;;;;;;;;;;5054022;28;20178;-81
2023/05/18 04:45:20;;;;;;;3.47;2.50;;;;;;;;;;5055229;28;20198;-81
2023/05/18 04:47:52;;;;;;;4.90;2.77;;;;;;;;;;5053819;28;20174;-82
2023/05/18 04:50:18;;;;;;;3.30;2.77;;;;;;;;;;5053015;28;20639;-81
2023/05/18 04:52:47;;;;;;;3.03;2.33;;;;;;;;;;5054019;28;20182;-82
2023/05/18 04:55:26;;;;;;;3.20;2.43;;;;;;;;;;5054037;28;20186;-81
2023/05/18 04:57:55;;;;;;;3.70;2.40;;;;;;;;;;5055240;28;20207;-81
2023/05/18 05:00:21;;;;;;;3.80;2.60;;;;;;;;;;5054120;28;20240;-81
2023/05/18 05:02:47;;;;;;;5.23;2.70;;;;;;;;;;5054497;28;20176;-81
2023/05/18 05:05:13;;;;;;;4.47;2.57;;;;;;;;;;5054730;28;20181;-81
2023/05/18 05:07:39;;;;;;;5.07;2.63;;;;;;;;;;5053880;28;20183;-82
2023/05/18 05:10:05;;;;;;;3.97;2.67;;;;;;;;;;5055256;28;20227;-83
2023/05/18 05:12:31;;;;;;;6.57;3.10;;;;;;;;;;5054723;28;20183;-83
2023/05/18 05:14:57;;;;;;;4.43;2.77;;;;;;;;;;5056259;28;20228;-83
2023/05/18 05:17:24;;;;;;;8.77;3.20;;;;;;;;;;5055527;28;20186;-83
2023/05/18 05:19:50;;;;;;;4.93;2.70;;;;;;;;;;5055475;28;20221;-82
2023/05/18 05:22:18;;;;;;;4.50;2.80;;;;;;;;;;5056818;28;20253;-83
2023/05/18 05:24:44;;;;;;;6.93;2.90;;;;;;;;;;5056930;28;20203;-83
2023/05/18 05:27:10;;;;;;;9.57;2.97;;;;;;;;;;5054740;28;20178;-83
2023/05/18 05:29:36;;;;;;;4.53;2.60;;;;;;;;;;5054239;28;20203;-81
2023/05/18 05:32:03;;;;;;;5.37;2.80;;;;;;;;;;5054774;28;20178;-83
2023/05/18 05:34:29;;;;;;;5.70;2.70;;;;;;;;;;5055531;28;20179;-84
2023/05/18 05:36:55;;;;;;;6.63;3.00;;;;;;;;;;5055363;28;20175;-83
2023/05/18 05:39:21;;;;;;;7.50;3.10;;;;;;;;;;5055473;28;20194;-82
2023/05/18 05:41:47;;;;;;;5.43;3.00;;;;;;;;;;5054360;28;20176;-83
2023/05/18 05:44:13;;;;;;;8.53;3.40;;;;;;;;;;5057031;28;20179;-83
2023/05/18 05:46:45;;;;;;;3.97;3.00;;;;;;;;;;5055583;28;20172;-83
2023/05/18 05:49:13;;;;;;;7.03;3.37;;;;;;;;;;5055670;28;20568;-82
2023/05/18 05:51:39;;;;;;;7.50;3.60;;;;;;;;;;5055323;28;20529;-85
2023/05/18 05:54:15;;;;;;;8.00;3.40;;;;;;;;;;5056280;28;20222;-83
2023/05/18 05:56:44;;;;;;;6.27;3.03;;;;;;;;;;5057132;28;20229;-82
2023/05/18 06:01:38;;;;;;;5.83;3.20;;;;;;;;;;5061088;28;20216;-83
2023/05/18 06:04:09;;;;;;;10.10;2.80;;;;;;;;;;5064881;28;20174;-83
2023/05/18 06:06:35;;;;;;;6.70;2.93;;;;;;;;;;5063623;28;20173;-84
2023/05/18 06:09:03;;;;;;;5.47;3.13;;;;;;;;;;5063690;28;20195;-84
2023/05/18 06:11:29;;;;;;;4.90;3.10;;;;;;;;;;5064107;28;20185;-83
2023/05/18 06:13:55;;;;;;;5.33;2.80;;;;;;;;;;5063177;28;20174;-83
2023/05/18 06:16:21;;;;;;;4.80;2.83;;;;;;;;;;5043455;28;20181;-82
2023/05/18 06:18:47;;;;;;;5.53;2.80;;;;;;;;;;5037997;28;20212;-80
2023/05/18 06:21:14;;;;;;;5.40;3.03;;;;;;;;;;5055036;28;20212;-83
2023/05/18 06:23:39;;;;;;;5.37;3.27;;;;;;;;;;5028907;28;20180;-82
2023/05/18 06:26:06;;;;;;;5.70;2.90;;;;;;;;;;5055653;28;20170;-82
2023/05/18 06:28:32;;;;;;;5.13;3.23;;;;;;;;;;5055641;28;20169;-81
2023/05/18 06:30:58;;;;;;;5.50;2.97;;;;;;;;;;5055445;28;20204;-82
2023/05/18 06:33:25;;;;;;;4.60;2.83;;;;;;;;;;5056221;28;20189;-79
2023/05/18 06:35:51;;;;;;;8.00;3.00;;;;;;;;;;5054512;28;20188;-83
2023/05/18 06:38:17;;;;;;;4.57;3.30;;;;;;;;;;5054729;28;20604;-78
2023/05/18 06:40:43;;;;;;;7.03;2.83;;;;;;;;;;5036552;28;20241;-83
2023/05/18 06:43:09;;;;;;;7.07;2.73;;;;;;;;;;5037299;28;20201;-83
2023/05/18 06:45:35;;;;;;;4.97;2.90;;;;;;;;;;5036172;28;20703;-82
2023/05/18 06:48:01;;;;;;;4.07;2.60;;;;;;;;;;5035953;28;20662;-86
2023/05/18 06:50:27;;;;;;;7.10;3.20;;;;;;;;;;5053598;28;20284;-86
2023/05/18 06:52:53;;;;;;;5.20;2.90;;;;;;;;;;5035346;28;20258;-85
2023/05/18 06:55:19;;;;;;;6.07;2.80;;;;;;;;;;5036155;28;20207;-83
2023/05/18 06:57:45;;;;;;;5.87;2.37;;;;;;;;;;5036919;28;20193;-82
2023/05/18 07:00:12;;;;;;;4.33;2.50;;;;;;;;;;5036411;28;20224;-85
2023/05/18 07:02:38;;;;;;;6.93;2.90;;;;;;;;;;5054487;28;20175;-84
2023/05/18 07:05:07;;;;;;;4.33;2.50;;;;;;;;;;5036966;28;20176;-83
2023/05/18 07:07:34;;;;;;;5.60;2.70;;;;;;;;;;5036605;28;20175;-83
2023/05/18 07:10:00;;;;;;;5.57;2.40;;;;;;;;;;5052877;28;20205;-84
2023/05/18 07:12:27;;;;;;;7.43;2.40;;;;;;;;;;5024452;28;20185;-85
2023/05/18 07:14:53;;;;;;;6.47;2.40;;;;;;;;;;5034601;28;20265;-81
2023/05/18 07:17:19;;;;;;;6.57;2.50;;;;;;;;;;5036209;28;20175;-81
2023/05/18 07:19:45;;;;;;;4.93;2.00;;;;;;;;;;5017551;28;20283;-82
2023/05/18 07:22:11;;;;;;;5.80;2.10;;;;;;;;;;5025066;28;20238;-79
2023/05/18 07:24:37;;;;;;;3.93;2.00;;;;;;;;;;5055334;28;20288;-82
2023/05/18 07:27:03;;;;;;;6.40;2.13;;;;;;;;;;5038111;28;20186;-82
2023/05/18 07:29:29;;;;;;;6.93;2.30;;;;;;;;;;5037067;28;20254;-81
2023/05/18 07:31:55;;;;;;;6.20;2.20;;;;;;;;;;5055419;28;20233;-80
2023/05/18 07:34:22;;;;;;;3.33;2.10;;;;;;;;;;5054755;28;20180;-83
2023/05/18 07:36:48;;;;;;;6.97;2.33;;;;;;;;;;5036750;28;20202;-84
2023/05/18 07:39:17;;;;;;;6.77;1.90;;;;;;;;;;5037552;28;20221;-83
2023/05/18 07:41:47;;;;;;;5.93;1.90;;;;;;;;;;5055268;28;20230;-83
2023/05/18 07:44:13;;;;;;;5.53;2.03;;;;;;;;;;5036827;28;20173;-82
2023/05/18 07:46:39;;;;;;;3.97;2.20;;;;;;;;;;5055075;28;20173;-82
2023/05/18 07:49:05;;;;;;;5.07;2.17;;;;;;;;;;5036254;28;20680;-82
2023/05/18 07:51:31;;;;;;;4.80;2.33;;;;;;;;;;5036622;28;20226;-82
2023/05/18 07:53:57;;;;;;;4.27;1.90;;;;;;;;;;5055132;28;20177;-82
2023/05/18 07:56:24;;;;;;;6.77;2.57;;;;;;;;;;5039470;28;20177;-82
2023/05/18 07:58:50;;;;;;;7.80;2.47;;;;;;;;;;5058931;28;20225;-83
2023/05/18 08:01:17;;;;;;;4.63;2.10;;;;;;;;;;5059152;28;20198;-82
2023/05/18 08:03:43;;;;;;;6.17;2.13;;;;;;;;;;5059775;28;20185;-82
2023/05/18 08:06:09;;;;;;;6.50;2.20;;;;;;;;;;5060450;28;20181;-83
2023/05/18 08:08:36;;;;;;;4.73;1.80;;;;;;;;;;5041853;28;20184;-83
2023/05/18 08:11:03;;;;;;;7.60;2.00;;;;;;;;;;5041439;28;20217;-82
2023/05/18 08:13:29;;;;;;;4.90;1.90;;;;;;;;;;5042029;28;20335;-82
2023/05/18 08:15:55;;;;;;;4.40;1.70;;;;;;;;;;5029140;28;20544;-83
2023/05/18 08:18:21;;;;;;;3.10;1.70;;;;;;;;;;5039664;28;20556;-83
2023/05/18 08:20:48;;;;;;;4.70;2.20;;;;;;;;;;5039779;28;20198;-82
2023/05/18 08:23:14;;;;;;;5.33;2.23;;;;;;;;;;5020973;28;20205;-83
2023/05/18 08:25:40;;;;;;;5.23;1.87;;;;;;;;;;5023025;28;20175;-83
2023/05/18 08:28:06;;;;;;;5.57;1.80;;;;;;;;;;5022787;28;20320;-82
2023/05/18 08:30:32;;;;;;;6.23;1.97;;;;;;;;;;5039292;28;20195;-82
2023/05/18 08:32:58;;;;;;;5.73;1.90;;;;;;;;;;5040896;28;20178;-83
2023/05/18 08:35:24;;;;;;;5.77;2.10;;;;;;;;;;5040439;28;20192;-83
2023/05/18 08:37:50;;;;;;;5.77;1.90;;;;;;;;;;5040852;28;20188;-82
2023/05/18 08:40:16;;;;;;;5.57;1.80;;;;;;;;;;5019993;28;20206;-83
2023/05/18 08:43:01;;;;;;;7.67;1.97;;;;;;;;;;5021655;28;20181;-82
2023/05/18 08:45:31;;;;;;;3.77;1.67;;;;;;;;;;5020202;28;20170;-84
2023/05/18 08:47:59;;;;;;;4.07;1.90;;;;;;;;;;5020971;28;20217;-83
2023/05/18 08:50:26;;;;;;;4.70;2.23;;;;;;;;;;5039865;28;20256;-82
2023/05/18 08:52:54;;;;;;;3.83;1.60;;;;;;;;;;5033305;28;20182;-82
2023/05/18 08:55:20;;;;;;;4.47;1.60;;;;;;;;;;5041421;28;20173;-81
2023/05/18 08:57:52;;;;;;;7.17;1.90;;;;;;;;;;5057826;28;20253;-84
2023/05/18 09:00:19;;;;;;;3.30;1.67;;;;;;;;;;5039615;28;20217;-84
2023/05/18 09:02:46;;;;;;;6.43;2.13;;;;;;;;;;5042741;28;20177;-82
2023/05/18 09:05:13;;;;;;;5.17;1.80;;;;;;;;;;5044380;28;20660;-83
2023/05/18 09:07:41;;;;;;;4.27;1.90;;;;;;;;;;5060617;28;20182;-82
2023/05/18 09:10:09;;;;;;;6.40;1.83;;;;;;;;;;5042231;28;20221;-82
2023/05/18 09:12:35;;;;;;;4.20;1.90;;;;;;;;;;5045996;28;20182;-82
2023/05/18 09:15:02;;;;;;;4.60;1.63;;;;;;;;;;5045421;28;20189;-82
2023/05/18 09:17:28;;;;;;;5.30;2.03;;;;;;;;;;5045446;28;20170;-82
2023/05/18 09:19:54;;;;;;;5.57;2.10;;;;;;;;;;5041805;28;20211;-83
2023/05/18 09:22:20;;;;;;;4.53;2.07;;;;;;;;;;5038918;28;20176;-81
2023/05/18 09:24:47;;;;;;;6.80;1.80;;;;;;;;;;5039358;28;20173;-83
2023/05/18 09:27:13;;;;;;;8.20;2.23;;;;;;;;;;5039123;28;20169;-82
2023/05/18 09:29:51;;;;;;;4.57;1.73;;;;;;;;;;5019752;28;20252;-82
2023/05/18 09:32:17;;;;;;;4.43;2.00;;;;;;;;;;5020038;28;20166;-82
2023/05/18 09:34:44;;;;;;;4.87;2.00;;;;;;;;;;5038548;28;20179;-82
2023/05/18 09:37:11;;;;;;;4.30;1.97;;;;;;;;;;5020289;28;20178;-83
2023/05/18 09:39:37;;;;;;;6.87;2.20;;;;;;;;;;5019187;28;20195;-81
2023/05/18 09:42:03;;;;;;;5.47;2.03;;;;;;;;;;5019908;28;20324;-83
2023/05/18 09:44:35;;;;;;;4.07;1.80;;;;;;;;;;5020284;28;20185;-83
2023/05/18 09:47:02;;;;;;;4.83;2.03;;;;;;;;;;5020022;28;20205;-81
2023/05/18 09:49:29;;;;;;;4.20;1.80;;;;;;;;;;5038130;28;20194;-83
2023/05/18 09:51:58;;;;;;;5.57;2.00;;;;;;;;;;5037491;28;20174;-82
2023/05/18 09:54:25;;;;;;;5.23;2.03;;;;;;;;;;5036788;28;20184;-81
2023/05/18 09:56:51;;;;;;;7.63;2.20;;;;;;;;;;5019158;28;20182;-82
2023/05/18 09:59:17;;;;;;;5.37;2.20;;;;;;;;;;5018501;28;20203;-82
2023/05/18 10:02:04;;;;;;;4.43;2.17;;;;;;;;;;5036154;28;20221;-85
2023/05/18 10:04:36;;;;;;;5.13;2.03;;;;;;;;;;5034679;28;20174;-86
2023/05/18 10:07:02;;;;;;;5.97;2.13;;;;;;;;;;5035509;28;20175;-87
2023/05/18 10:09:28;;;;;;;4.90;1.90;;;;;;;;;;5016847;28;20198;-87
2023/05/18 10:11:54;;;;;;;6.07;2.20;;;;;;;;;;5015562;28;20178;-88
2023/05/18 10:14:32;;;;;;;6.07;2.07;;;;;;;;;;5016530;28;20181;-87
2023/05/18 10:16:58;;;;;;;5.57;2.03;;;;;;;;;;5036055;28;20174;-85
2023/05/18 10:19:24;;;;;;;5.10;1.90;;;;;;;;;;5034388;28;20209;-84
2023/05/18 10:21:50;;;;;;;8.77;3.00;;;;;;;;;;5016337;28;20178;-82
2023/05/18 10:24:17;;;;;;;5.23;2.33;;;;;;;;;;5035191;28;20569;-84
2023/05/18 10:26:43;;;;;;;5.67;2.13;;;;;;;;;;5036180;28;20170;-81
2023/05/18 10:29:09;;;;;;;7.23;3.07;;;;;;;;;;5056483;28;20193;-80
2023/05/18 10:31:36;;;;;;;6.47;2.40;;;;;;;;;;5038548;28;20189;-81
2023/05/18 10:34:03;;;;;;;8.00;2.10;;;;;;;;;;5038906;28;20226;-81
2023/05/18 10:36:31;;;;;;;5.87;2.20;;;;;;;;;;5056996;28;20185;-80
2023/05/18 10:39:00;;;;;;;5.13;2.00;;;;;;;;;;5039149;28;20169;-81
2023/05/18 10:41:26;;;;;;;3.70;1.87;;;;;;;;;;5036605;28;20240;-80
2023/05/18 10:43:52;;;;;;;4.17;1.80;;;;;;;;;;5038458;28;20174;-81
2023/05/18 10:46:20;;;;;;;6.43;2.00;;;;;;;;;;5039806;28;20205;-81
2023/05/18 10:48:47;;;;;;;5.73;2.20;;;;;;;;;;5039674;28;20169;-82
2023/05/18 10:51:14;;;;;;;4.97;1.90;;;;;;;;;;5057139;28;20781;-81
2023/05/18 10:53:42;;;;;;;4.97;2.13;;;;;;;;;;5039568;28;20201;-80
2023/05/18 10:56:09;;;;;;;2.73;2.00;;;;;;;;;;5039105;28;20173;-81
2023/05/18 10:58:36;;;;;;;8.00;2.00;;;;;;;;;;5057623;28;20177;-81
2023/05/18 11:01:05;;;;;;;4.27;1.83;;;;;;;;;;5038752;28;20213;-81
2023/05/18 11:03:32;;;;;;;4.23;2.00;;;;;;;;;;5039472;28;20165;-81
2023/05/18 11:06:05;;;;;;;3.97;2.07;;;;;;;;;;5057996;28;20178;-81
2023/05/18 11:08:31;;;;;;;5.43;1.83;;;;;;;;;;5057435;28;20177;-79
2023/05/18 11:11:02;;;;;;;3.60;1.97;;;;;;;;;;5038783;28;20201;-80
2023/05/18 11:13:29;;;;;;;5.97;2.07;;;;;;;;;;5039112;28;20241;-81
2023/05/18 11:15:57;;;;;;;4.63;2.23;;;;;;;;;;5057948;28;20239;-80
2023/05/18 11:18:32;;;;;;;3.37;1.80;;;;;;;;;;5039282;28;20181;-81
2023/05/18 11:20:58;;;;;;;6.77;1.90;;;;;;;;;;5038717;28;20209;-80
2023/05/18 11:23:24;;;;;;;4.67;2.00;;;;;;;;;;5059263;28;20190;-81
2023/05/18 11:25:53;;;;;;;3.93;1.90;;;;;;;;;;5059358;28;20170;-81
2023/05/18 11:28:21;;;;;;;5.83;2.00;;;;;;;;;;5058784;28;20261;-81
2023/05/18 11:30:48;;;;;;;6.50;2.10;;;;;;;;;;5041374;28;20201;-82
2023/05/18 11:33:15;;;;;;;3.30;1.90;;;;;;;;;;5045159;28;20245;-81
2023/05/18 11:35:54;;;;;;;5.00;2.10;;;;;;;;;;5061949;28;20208;-82
2023/05/18 11:38:20;;;;;;;4.00;2.10;;;;;;;;;;5043929;28;20176;-81
2023/05/18 11:40:50;;;;;;;6.50;2.00;;;;;;;;;;5042609;28;20212;-81
2023/05/18 11:43:22;;;;;;;5.50;1.97;;;;;;;;;;5043404;28;20228;-81
2023/05/18 11:45:53;;;;;;;4.50;2.00;;;;;;;;;;5043191;28;20178;-78
2023/05/18 11:48:25;;;;;;;7.23;2.37;;;;;;;;;;5043950;28;20199;-78
2023/05/18 11:50:55;;;;;;;4.87;1.80;;;;;;;;;;5062248;28;20209;-81
2023/05/18 11:53:25;;;;;;;5.30;2.00;;;;;;;;;;5062291;28;20178;-79
2023/05/18 11:55:53;;;;;;;5.67;2.17;;;;;;;;;;5044746;28;20177;-81
2023/05/18 11:58:19;;;;;;;4.50;2.00;;;;;;;;;;5062359;28;20174;-81
2023/05/18 12:00:49;;;;;;;4.70;2.20;;;;;;;;;;5045256;28;20213;-81
2023/05/18 12:03:15;;;;;;;4.77;2.00;;;;;;;;;;5045510;28;20173;-81
2023/05/18 12:05:48;;;;;;;6.93;2.10;;;;;;;;;;5060985;28;20184;-81
2023/05/18 12:08:15;;;;;;;6.37;2.03;;;;;;;;;;5064011;28;20177;-81
2023/05/18 12:10:41;;;;;;;4.60;2.13;;;;;;;;;;5050752;28;20202;-80
2023/05/18 12:13:08;;;;;;;5.50;2.13;;;;;;;;;;5025778;28;20179;-80
2023/05/18 12:15:34;;;;;;;6.00;2.17;;;;;;;;;;5043394;28;20171;-81
2023/05/18 12:18:00;;;;;;;4.63;2.23;;;;;;;;;;5043684;28;20177;-81
2023/05/18 12:20:27;;;;;;;4.63;2.17;;;;;;;;;;5025038;28;20213;-80
2023/05/18 12:22:54;;;;;;;5.03;2.10;;;;;;;;;;5025738;28;20202;-81
2023/05/18 12:25:22;;;;;;;4.57;2.00;;;;;;;;;;5040544;28;20177;-81
2023/05/18 12:27:48;;;;;;;3.10;1.63;;;;;;;;;;5022234;28;20613;-81
2023/05/18 12:30:18;;;;;;;4.63;1.83;;;;;;;;;;5039027;28;20293;-82
2023/05/18 12:32:45;;;;;;;3.43;1.77;;;;;;;;;;5021089;28;20174;-83
2023/05/18 12:35:11;;;;;;;4.53;2.00;;;;;;;;;;5040415;28;20229;-81
2023/05/18 12:37:42;;;;;;;4.23;1.87;;;;;;;;;;5036767;28;20181;-81
2023/05/18 12:40:08;;;;;;;5.30;2.00;;;;;;;;;;5051157;28;20667;-82
2023/05/18 12:42:35;;;;;;;4.33;2.13;;;;;;;;;;5038729;28;20182;-82
2023/05/18 12:45:01;;;;;;;3.47;2.10;;;;;;;;;;5023071;28;20178;-82
2023/05/18 12:47:29;;;;;;;5.37;1.90;;;;;;;;;;5022785;28;20261;-82
2023/05/18 12:49:55;;;;;;;4.37;2.13;;;;;;;;;;5022550;28;20209;-83
2023/05/18 12:52:21;;;;;;;3.87;1.87;;;;;;;;;;5041049;28;20258;-83
2023/05/18 12:54:54;;;;;;;4.83;2.30;;;;;;;;;;5041085;28;20242;-83
2023/05/18 12:57:20;;;;;;;8.80;2.40;;;;;;;;;;5023126;28;20289;-82
2023/05/18 12:59:50;;;;;;;6.53;2.10;;;;;;;;;;5022062;28;20198;-83
2023/05/18 13:02:29;;;;;;;5.30;1.93;;;;;;;;;;5039691;28;20178;-84
2023/05/18 13:05:05;;;;;;;3.53;1.83;;;;;;;;;;5041398;28;20190;-84
2023/05/18 13:07:33;;;;;;;4.60;2.10;;;;;;;;;;5041350;28;20216;-83
2023/05/18 13:10:06;;;;;;;7.53;2.30;;;;;;;;;;5021727;28;20194;-83
2023/05/18 13:12:36;;;;;;;4.83;1.87;;;;;;;;;;5041226;28;20175;-83
2023/05/18 13:15:09;;;;;;;5.03;2.00;;;;;;;;;;5022995;28;20261;-83
2023/05/18 13:17:35;;;;;;;3.50;1.90;;;;;;;;;;5041231;28;20182;-83
2023/05/18 13:20:01;;;;;;;6.90;2.57;;;;;;;;;;5039823;28;20210;-84
2023/05/18 13:22:27;;;;;;;6.17;2.10;;;;;;;;;;5021699;28;20198;-83
2023/05/18 13:24:53;;;;;;;5.57;2.10;;;;;;;;;;5041398;28;20271;-83
2023/05/18 13:27:19;;;;;;;5.40;2.27;;;;;;;;;;5023596;28;20214;-84
2023/05/18 13:29:45;;;;;;;4.53;2.20;;;;;;;;;;5021475;28;20205;-84
2023/05/18 13:32:11;;;;;;;3.57;2.20;;;;;;;;;;5041554;28;20178;-83
2023/05/18 13:34:37;;;;;;;6.00;2.10;;;;;;;;;;5040991;28;20547;-84
2023/05/18 13:37:03;;;;;;;5.00;2.10;;;;;;;;;;5022108;28;20253;-84
2023/05/18 13:39:29;;;;;;;5.70;2.27;;;;;;;;;;5022420;28;20199;-85
2023/05/18 13:41:55;;;;;;;3.60;2.00;;;;;;;;;;5041159;28;20186;-84
2023/05/18 13:44:21;;;;;;;6.03;2.00;;;;;;;;;;5040751;28;20206;-83
2023/05/18 13:46:47;;;;;;;5.10;1.93;;;;;;;;;;5040438;28;20174;-83
2023/05/18 13:49:13;;;;;;;5.60;2.13;;;;;;;;;;5021871;28;20248;-83
2023/05/18 13:51:39;;;;;;;5.67;2.53;;;;;;;;;;5040282;28;20204;-83
2023/05/18 13:54:06;;;;;;;3.77;2.13;;;;;;;;;;5022000;28;20188;-84
2023/05/18 13:56:32;;;;;;;5.10;1.90;;;;;;;;;;5024383;28;20532;-84
2023/05/18 13:58:58;;;;;;;4.60;2.00;;;;;;;;;;5023185;28;20567;-83
2023/05/18 14:01:24;;;;;;;4.00;1.87;;;;;;;;;;5023029;28;20791;-82
2023/05/18 14:03:50;;;;;;;4.80;2.03;;;;;;;;;;5022320;28;20182;-84
2023/05/18 14:06:17;;;;;;;3.40;1.60;;;;;;;;;;5022029;28;20175;-83
2023/05/18 14:08:43;;;;;;;6.33;2.03;;;;;;;;;;5040227;28;20262;-84
2023/05/18 14:11:09;;;;;;;4.63;1.60;;;;;;;;;;5021472;28;20182;-84
2023/05/18 14:13:35;;;;;;;4.30;1.93;;;;;;;;;;5021897;28;20177;-83
2023/05/18 14:16:01;;;;;;;4.03;1.90;;;;;;;;;;5040290;28;20645;-84
2023/05/18 14:18:27;;;;;;;4.23;1.80;;;;;;;;;;5022045;28;20711;-85
2023/05/18 14:20:53;;;;;;;3.30;1.80;;;;;;;;;;5020552;28;20673;-85
2023/05/18 14:23:19;;;;;;;3.77;1.87;;;;;;;;;;5039929;28;20173;-84
2023/05/18 14:25:45;;;;;;;5.27;1.90;;;;;;;;;;5022099;28;20179;-83
2023/05/18 14:28:12;;;;;;;4.67;2.03;;;;;;;;;;5021354;28;20173;-83
2023/05/18 14:30:38;;;;;;;3.97;1.83;;;;;;;;;;5021615;28;20205;-84
2023/05/18 14:33:04;;;;;;;4.10;1.70;;;;;;;;;;5022747;28;20178;-84
2023/05/18 14:35:30;;;;;;;3.87;1.67;;;;;;;;;;5039257;28;20201;-84
2023/05/18 14:37:56;;;;;;;4.60;1.60;;;;;;;;;;5021474;28;20178;-83
2023/05/18 14:40:22;;;;;;;3.30;1.80;;;;;;;;;;5039206;28;20213;-84
2023/05/18 14:42:48;;;;;;;4.13;1.70;;;;;;;;;;5039182;28;20170;-84
2023/05/18 14:45:15;;;;;;;4.57;1.77;;;;;;;;;;5021349;28;20181;-84